KFME/FME METAR and TAF weather

Enter ICAO airport designator
Station Type Date Time Source
KFME METAR 2019/08/22 07:03 UTC NOAA

KFME 220703Z AUTO 00000KT 3SM CLR 21/20 A2993 RMK AO1


Station Type Date Time Source
KFME Decoded METAR 2019/08/22 07:03 UTC NOAA

Station name not available
Aug 22, 2019 - 03:03 AM EDT / 2019.08.22 0703 UTC
Wind: Calm:0
Visibility: 3 mile(s):0
Sky conditions: clear
Temperature: 69 F (21 C)
Dew Point: 68 F (20 C)
Relative Humidity: 94%
Pressure (altimeter): 29.93 in. Hg (1013 hPa)
ob: KFME 220703Z AUTO 00000KT 3SM CLR 21/20 A2993 RMK AO1
cycle: 7

Station Type Date Time Source
KFME TAF UTC NOAA

Error!

Example: see airport list